createdAt,value
2023-04-15T00:03:45.049Z,52.13
2023-04-15T00:09:06.877Z,52.04
2023-04-15T00:14:28.837Z,52.17
2023-04-15T00:19:51.839Z,52.06
2023-04-15T00:25:13.850Z,52.20
2023-04-15T00:30:42.888Z,52.06
2023-04-15T00:36:05.856Z,52.02
2023-04-15T00:41:27.859Z,52.21
2023-04-15T00:46:51.832Z,51.97
2023-04-15T00:52:13.841Z,52.29
2023-04-15T00:57:35.849Z,52.22
2023-04-15T01:02:57.987Z,52.38
2023-04-15T01:08:19.855Z,52.53
2023-04-15T01:13:41.856Z,52.60
2023-04-15T01:19:03.822Z,52.48
2023-04-15T01:24:26.824Z,52.89
2023-04-15T01:29:55.830Z,52.70
2023-04-15T01:35:19.865Z,52.79
2023-04-15T01:40:41.854Z,52.70
2023-04-15T01:46:03.834Z,52.65
2023-04-15T01:51:25.810Z,52.83
2023-04-15T01:56:47.845Z,52.68
2023-04-15T02:02:09.877Z,52.53
2023-04-15T02:07:31.835Z,52.69
2023-04-15T02:12:53.840Z,52.99
2023-04-15T02:18:16.822Z,52.74
2023-04-15T02:23:38.818Z,52.74
2023-04-15T02:29:01.906Z,52.41
2023-04-15T02:34:23.842Z,52.76
2023-04-15T02:39:45.818Z,52.74
2023-04-15T02:45:07.842Z,52.57
2023-04-15T02:50:31.807Z,52.60
2023-04-15T02:55:53.802Z,52.60
2023-04-15T03:01:15.853Z,52.88
2023-04-15T03:06:37.819Z,52.82
2023-04-15T03:12:00.814Z,52.82
2023-04-15T03:17:22.873Z,52.81
2023-04-15T03:22:44.798Z,53.04
2023-04-15T03:28:08.818Z,53.31
2023-04-15T03:33:30.809Z,53.31
2023-04-15T03:38:52.804Z,53.52
2023-04-15T03:44:14.803Z,53.40
2023-04-15T03:49:36.780Z,53.71
2023-04-15T03:54:58.789Z,53.79
2023-04-15T04:00:22.787Z,53.83
2023-04-15T04:05:45.797Z,53.96
2023-04-15T04:11:07.805Z,54.14
2023-04-15T04:16:29.935Z,54.35
2023-04-15T04:21:51.781Z,54.20
2023-04-15T04:27:13.778Z,54.35
2023-04-15T04:32:50.876Z,54.46
2023-04-15T04:38:12.785Z,54.69
2023-04-15T04:43:34.786Z,54.68
2023-04-15T04:48:56.810Z,54.81
2023-04-15T04:54:18.759Z,54.96
2023-04-15T04:59:40.772Z,55.33
2023-04-15T05:05:02.768Z,55.26
2023-04-15T05:10:24.774Z,55.10
2023-04-15T05:15:47.823Z,55.05
2023-04-15T05:21:09.784Z,55.04
2023-04-15T05:26:31.772Z,55.12
2023-04-15T05:32:00.784Z,55.32
2023-04-15T05:37:22.801Z,55.12
2023-04-15T05:42:44.772Z,55.36
2023-04-15T05:48:06.762Z,55.36
2023-04-15T05:53:28.790Z,55.27
2023-04-15T05:58:52.453Z,55.33
2023-04-15T06:04:15.842Z,55.70
2023-04-15T06:09:37.760Z,55.78
2023-04-15T06:15:00.208Z,55.40
2023-04-15T06:20:21.777Z,55.62
2023-04-15T06:25:43.776Z,55.70
2023-04-15T06:31:05.742Z,55.80
2023-04-15T06:36:27.754Z,55.74
2023-04-15T06:41:49.773Z,56.01
2023-04-15T06:47:11.750Z,56.15
2023-04-15T06:52:33.757Z,56.26
2023-04-15T06:57:55.741Z,56.39
2023-04-15T07:03:19.771Z,56.25
2023-04-15T07:08:41.733Z,56.35
2023-04-15T07:14:04.770Z,56.15
2023-04-15T07:19:26.736Z,56.24
2023-04-15T07:24:48.738Z,56.54
2023-04-15T07:30:10.720Z,56.53
2023-04-15T07:35:32.723Z,56.90
2023-04-15T07:40:54.731Z,56.74
2023-04-15T07:46:16.793Z,56.85
2023-04-15T07:51:38.741Z,56.97
2023-04-15T07:57:00.709Z,56.98
2023-04-15T08:02:22.910Z,56.75
2023-04-15T08:07:44.734Z,56.94
2023-04-15T08:13:07.726Z,56.86
2023-04-15T08:18:29.716Z,56.95
2023-04-15T08:23:51.720Z,56.91
2023-04-15T08:29:13.717Z,56.71
2023-04-15T08:34:35.722Z,56.73
2023-04-15T08:39:57.717Z,56.64
2023-04-15T08:45:22.704Z,56.76
2023-04-15T08:50:44.710Z,57.08
2023-04-15T08:56:10.715Z,56.97
2023-04-15T09:01:33.830Z,57.21
2023-04-15T09:06:55.913Z,56.96
2023-04-15T09:12:18.704Z,56.88
2023-04-15T09:17:40.709Z,57.26
2023-04-15T09:23:02.704Z,56.86
2023-04-15T09:28:24.697Z,56.84
2023-04-15T09:34:04.379Z,56.79
2023-04-15T09:39:25.687Z,56.80
2023-04-15T09:44:47.690Z,57.03
2023-04-15T09:50:10.715Z,57.27
2023-04-15T09:55:32.696Z,57.25
2023-04-15T10:00:54.690Z,57.11
2023-04-15T10:06:16.687Z,57.12
2023-04-15T10:11:42.664Z,57.00
2023-04-15T10:17:07.668Z,57.03
2023-04-15T10:22:30.695Z,56.95
2023-04-15T10:27:54.668Z,57.03
2023-04-15T10:33:18.662Z,56.93
2023-04-15T10:38:51.669Z,56.91
2023-04-15T10:44:14.673Z,57.08
2023-04-15T10:49:36.663Z,57.26
2023-04-15T10:54:58.674Z,57.18
2023-04-15T11:00:27.684Z,57.36
2023-04-15T11:05:55.680Z,57.42
2023-04-15T11:11:17.645Z,57.47
2023-04-15T11:16:39.687Z,56.65
2023-04-15T11:22:01.654Z,57.27
2023-04-15T11:27:23.711Z,56.62
2023-04-15T11:32:48.752Z,56.85
2023-04-15T11:38:10.688Z,56.41
2023-04-15T11:43:33.662Z,56.40
2023-04-15T11:48:59.665Z,56.11
2023-04-15T11:54:25.659Z,55.80
2023-04-15T11:59:57.691Z,55.63
2023-04-15T12:05:20.776Z,55.20
2023-04-15T12:10:45.670Z,55.08
2023-04-15T12:16:07.692Z,55.10
2023-04-15T12:21:29.668Z,55.00
2023-04-15T12:26:52.655Z,55.18
2023-04-15T12:32:29.717Z,55.22
2023-04-15T12:37:51.649Z,55.18
2023-04-15T12:43:13.657Z,55.29
2023-04-15T12:48:35.650Z,55.08
2023-04-15T12:53:57.659Z,55.09
2023-04-15T12:59:19.645Z,54.66
2023-04-15T13:04:41.700Z,54.73
2023-04-15T13:10:03.669Z,54.67
2023-04-15T13:15:27.641Z,54.81
2023-04-15T13:20:49.630Z,54.52
2023-04-15T13:26:11.620Z,54.94
2023-04-15T13:31:40.647Z,54.96
2023-04-15T13:37:02.630Z,54.84
2023-04-15T13:42:24.632Z,54.48
2023-04-15T13:47:46.665Z,54.79
2023-04-15T13:53:08.629Z,54.75
2023-04-15T13:58:30.615Z,54.86
2023-04-15T14:03:52.759Z,54.79
2023-04-15T14:09:14.607Z,54.82
2023-04-15T14:14:36.606Z,55.16
2023-04-15T14:19:58.596Z,54.68
2023-04-15T14:25:32.743Z,55.12
2023-04-15T14:30:55.648Z,54.97
2023-04-15T14:36:17.639Z,54.95
2023-04-15T14:41:39.613Z,54.82
2023-04-15T14:47:02.587Z,54.97
2023-04-15T14:52:24.589Z,55.05
2023-04-15T14:57:46.612Z,55.18
2023-04-15T15:03:08.655Z,55.25
2023-04-15T15:08:30.624Z,55.16
2023-04-15T15:13:52.598Z,55.14
2023-04-15T15:19:14.597Z,55.49
2023-04-15T15:24:36.578Z,54.74
2023-04-15T15:29:58.634Z,54.65
2023-04-15T15:35:20.594Z,54.84
2023-04-15T15:40:42.616Z,55.11
2023-04-15T15:46:04.595Z,54.86
2023-04-15T15:51:26.573Z,55.36
2023-04-15T15:56:48.594Z,55.14
2023-04-15T16:02:10.668Z,54.82
2023-04-15T16:07:32.587Z,54.65
2023-04-15T16:12:54.587Z,54.91
2023-04-15T16:18:16.573Z,54.77
2023-04-15T16:23:38.649Z,54.71
2023-04-15T16:29:00.561Z,54.63
2023-04-15T16:34:22.574Z,55.00
2023-04-15T16:39:44.571Z,55.02
2023-04-15T16:45:06.583Z,54.60
2023-04-15T16:50:28.560Z,54.99
2023-04-15T16:55:50.556Z,54.82
2023-04-15T17:01:12.593Z,54.82
2023-04-15T17:06:34.571Z,54.72
2023-04-15T17:11:56.551Z,55.19
2023-04-15T17:17:19.573Z,55.19
2023-04-15T17:22:41.539Z,55.00
2023-04-15T17:28:03.537Z,54.75
2023-04-15T17:34:00.310Z,55.18
2023-04-15T17:39:15.088Z,55.16
2023-04-15T17:44:36.568Z,54.99
2023-04-15T17:49:58.565Z,54.93
2023-04-15T17:55:21.544Z,55.14
2023-04-15T18:00:43.561Z,55.37
2023-04-15T18:06:05.546Z,55.10
2023-04-15T18:11:27.558Z,55.14
2023-04-15T18:16:50.546Z,55.07
2023-04-15T18:22:13.552Z,54.71
2023-04-15T18:27:35.546Z,54.68
2023-04-15T18:32:57.574Z,54.85
2023-04-15T18:38:19.527Z,54.70
2023-04-15T18:43:41.547Z,54.94
2023-04-15T18:49:03.733Z,54.85
2023-04-15T18:54:25.535Z,54.58
2023-04-15T18:59:47.561Z,55.03
2023-04-15T19:05:10.520Z,54.62
2023-04-15T19:10:32.534Z,55.13
2023-04-15T19:15:54.526Z,55.24
2023-04-15T19:21:16.548Z,55.06
2023-04-15T19:26:38.529Z,55.53
2023-04-15T19:32:00.529Z,55.28
2023-04-15T19:37:22.529Z,55.06
2023-04-15T19:42:44.534Z,55.14
2023-04-15T19:48:06.578Z,55.29
2023-04-15T19:53:28.526Z,55.47
2023-04-15T19:58:53.527Z,55.62
2023-04-15T20:04:15.599Z,55.51
2023-04-15T20:09:37.520Z,55.23
2023-04-15T20:14:59.532Z,56.03
2023-04-15T20:20:21.524Z,55.48
2023-04-15T20:25:43.503Z,55.51
2023-04-15T20:31:07.553Z,55.58
2023-04-15T20:36:29.496Z,55.72
2023-04-15T20:41:51.509Z,55.82
2023-04-15T20:47:13.590Z,55.86
2023-04-15T20:52:35.520Z,55.96
2023-04-15T20:57:57.493Z,55.96
2023-04-15T21:03:19.752Z,56.10
2023-04-15T21:08:41.510Z,56.23
2023-04-15T21:14:03.492Z,56.53
2023-04-15T21:19:25.501Z,56.08
2023-04-15T21:24:47.516Z,55.83
2023-04-15T21:30:09.493Z,56.24
2023-04-15T21:35:31.478Z,56.11
2023-04-15T21:40:53.492Z,56.27
2023-04-15T21:46:23.124Z,56.43
2023-04-15T21:51:46.503Z,56.62
2023-04-15T21:57:08.482Z,56.62
2023-04-15T22:02:30.585Z,56.80
2023-04-15T22:07:52.478Z,56.87
2023-04-15T22:13:17.474Z,57.05
2023-04-15T22:18:39.467Z,56.99
2023-04-15T22:24:31.806Z,56.96
2023-04-15T22:29:44.481Z,57.34
2023-04-15T22:35:06.475Z,57.09
2023-04-15T22:40:28.474Z,57.25
2023-04-15T22:45:50.558Z,57.36
2023-04-15T22:51:12.503Z,57.11
2023-04-15T22:56:35.473Z,56.92
2023-04-15T23:01:57.536Z,56.96
2023-04-15T23:07:19.453Z,57.33
2023-04-15T23:12:41.441Z,57.27
2023-04-15T23:18:03.505Z,57.31
2023-04-15T23:23:25.462Z,57.55
2023-04-15T23:28:47.450Z,57.50
2023-04-15T23:34:16.435Z,57.10
2023-04-15T23:39:38.444Z,57.48
2023-04-15T23:45:00.468Z,57.36
2023-04-15T23:50:22.446Z,57.23
2023-04-15T23:55:44.448Z,57.27
